Time;durP1;ratioP1;P1;durP2;ratioP2;P2;SDS_P1;SDS_P2;PMS_P1;PMS_P2;Temp;Humidity;BMP_temperature;BMP_pressure;BME280_temperature;BME280_humidity;BME280_pressure;Samples;Min_cycle;Max_cycle;Signal;HPM_P1;HPM_P2
2021/11/16 00:01:02;;;;;;;;;;;;;;;8.10;59.63;100939.25;4459468;32;19992;-89
2021/11/16 00:03:28;;;;;;;;;;;;;;;8.06;59.62;100938.41;4459206;32;19999;-89
2021/11/16 00:05:53;;;;;;;;;;;;;;;8.04;59.62;100945.28;4458394;32;19992;-90
2021/11/16 00:08:18;;;;;;;;;;;;;;;7.98;59.62;100946.16;4458890;32;25276;-90
2021/11/16 00:10:43;;;;;;;;;;;;;;;7.86;59.62;100956.59;4459815;32;20018;-90
2021/11/16 00:13:11;;;;;;;;;;;;;;;7.95;59.62;100943.59;4473433;32;20329;-89
2021/11/16 00:15:40;;;;;;;;;;;;;;;7.96;59.62;100945.31;4459158;32;20268;-90
2021/11/16 00:18:05;;;;;;;;;;;;;;;8.04;59.62;100944.41;4458848;32;20007;-90
2021/11/16 00:20:32;;;;;;;;;;;;;;;7.93;59.62;100947.91;4472194;32;20019;-91
2021/11/16 00:22:57;;;;;;;;;;;;;;;7.90;59.61;100940.16;4459563;32;19963;-91
2021/11/16 00:25:32;;;;;;;;;;;;;;;7.91;59.61;100933.22;4458801;32;21758;-92
2021/11/16 00:27:57;;;;;;;;;;;;;;;8.05;59.62;100938.41;4460831;32;19972;-93
2021/11/16 00:30:22;;;;;;;;;;;;;;;7.94;59.62;100943.59;4460566;32;22037;-91
2021/11/16 00:32:47;;;;;;;;;;;;;;;7.92;59.62;100940.16;4459367;32;19973;-91
2021/11/16 00:35:13;;;;;;;;;;;;;;;7.87;59.62;100944.47;4459186;32;20022;-91
2021/11/16 00:37:38;;;;;;;;;;;;;;;7.91;59.61;100944.47;4459311;32;20049;-90
2021/11/16 00:40:05;;;;;;;;;;;;;;;7.94;59.62;100943.59;4459456;32;19989;-92
2021/11/16 00:42:30;;;;;;;;;;;;;;;7.92;59.62;100940.16;4459289;32;19976;-88
2021/11/16 00:44:55;;;;;;;;;;;;;;;7.91;59.61;100941.00;4458395;32;26365;-88
2021/11/16 00:47:20;;;;;;;;;;;;;;;7.92;59.62;100942.75;4458964;32;19985;-89
2021/11/16 00:49:46;;;;;;;;;;;;;;;7.98;59.62;100941.00;4458579;32;20386;-89
2021/11/16 00:52:11;;;;;;;;;;;;;;;7.74;59.61;100945.34;4458802;32;19980;-89
2021/11/16 00:54:36;;;;;;;;;;;;;;;7.61;59.60;100947.12;4459032;32;19996;-89
2021/11/16 00:57:02;;;;;;;;;;;;;;;7.59;59.59;100946.25;4459137;32;20646;-90
2021/11/16 00:59:27;;;;;;;;;;;;;;;7.43;59.59;100952.28;4459185;32;19992;-89
2021/11/16 01:01:53;;;;;;;;;;;;;;;7.50;59.60;100944.50;4459365;32;19999;-90
2021/11/16 01:04:19;;;;;;;;;;;;;;;7.51;59.60;100943.66;4459268;32;19967;-88
2021/11/16 01:06:44;;;;;;;;;;;;;;;7.47;59.60;100947.09;4458745;32;20353;-89
2021/11/16 01:09:10;;;;;;;;;;;;;;;7.53;59.59;100954.88;4458523;32;20037;-89
2021/11/16 01:11:35;;;;;;;;;;;;;;;7.59;59.60;100960.06;4458689;32;20349;-90
2021/11/16 01:14:00;;;;;;;;;;;;;;;7.51;59.59;100959.19;4458628;32;20006;-89
2021/11/16 01:16:25;;;;;;;;;;;;;;;7.48;59.60;100966.09;4458510;32;20070;-90
2021/11/16 01:18:51;;;;;;;;;;;;;;;7.55;59.60;100966.09;4459735;32;19988;-89
2021/11/16 01:21:16;;;;;;;;;;;;;;;7.55;59.60;100962.63;4458212;32;31988;-89
2021/11/16 01:23:42;;;;;;;;;;;;;;;7.46;59.59;100968.69;4458140;32;20032;-89
2021/11/16 01:26:10;;;;;;;;;;;;;;;7.58;59.60;100967.84;4458536;32;20031;-88
2021/11/16 01:28:36;;;;;;;;;;;;;;;7.58;59.60;100967.84;4459019;32;20003;-89
2021/11/16 01:31:04;;;;;;;;;;;;;;;7.68;59.60;100959.19;4458436;32;19981;-87
2021/11/16 01:33:43;;;;;;;;;;;;;;;7.79;59.61;100967.81;4458705;32;19976;-90
2021/11/16 01:36:09;;;;;;;;;;;;;;;7.88;59.62;100965.22;4459928;32;20608;-89
2021/11/16 01:38:35;;;;;;;;;;;;;;;7.95;59.62;100968.66;4458624;32;20019;-89
2021/11/16 01:41:01;;;;;;;;;;;;;;;8.06;59.62;100964.31;4458828;32;19999;-89
2021/11/16 01:43:26;;;;;;;;;;;;;;;8.14;59.63;100956.53;4458442;32;20036;-89
2021/11/16 01:45:52;;;;;;;;;;;;;;;8.26;59.64;100956.47;4471742;32;19992;-89
2021/11/16 01:48:17;;;;;;;;;;;;;;;8.20;59.63;100957.34;4471075;32;28036;-89
2021/11/16 01:50:44;;;;;;;;;;;;;;;8.42;59.64;100957.31;4471664;32;19987;-89
2021/11/16 01:53:10;;;;;;;;;;;;;;;8.51;59.66;100952.94;4471570;32;20024;-89
2021/11/16 01:55:35;;;;;;;;;;;;;;;8.48;59.65;100952.09;4471611;32;19993;-89
2021/11/16 01:58:00;;;;;;;;;;;;;;;8.56;59.65;100955.53;4471348;32;19988;-90
2021/11/16 02:00:33;;;;;;;;;;;;;;;8.70;59.66;100952.84;4457916;32;21592;-90
2021/11/16 02:02:59;;;;;;;;;;;;;;;8.68;59.66;100946.81;4458455;32;20048;-89
2021/11/16 02:05:53;;;;;;;;;;;;;;;8.70;59.66;100947.66;4458408;32;20008;-90
2021/11/16 02:08:19;;;;;;;;;;;;;;;8.69;59.66;100941.63;4462305;32;19992;-90
2021/11/16 02:10:45;;;;;;;;;;;;;;;8.82;59.67;100926.84;4471756;32;19977;-90
2021/11/16 02:13:10;;;;;;;;;;;;;;;8.84;59.67;100936.34;4458505;32;19977;-90
2021/11/16 02:15:38;;;;;;;;;;;;;;;8.81;59.66;100925.13;4471369;32;20016;-90
2021/11/16 02:18:07;;;;;;;;;;;;;;;8.85;59.67;100938.06;4458698;32;19994;-88
2021/11/16 02:20:33;;;;;;;;;;;;;;;9.00;59.68;100947.50;4471504;32;19980;-90
2021/11/16 02:22:58;;;;;;;;;;;;;;;8.82;59.67;100945.03;4458554;32;20356;-90
2021/11/16 02:25:23;;;;;;;;;;;;;;;8.95;59.67;100938.87;4472052;32;20004;-90
2021/11/16 02:27:49;;;;;;;;;;;;;;;8.89;59.67;100936.31;4471523;32;20617;-90
2021/11/16 02:30:14;;;;;;;;;;;;;;;8.95;59.67;100933.66;4470713;32;19977;-90
2021/11/16 02:32:42;;;;;;;;;;;;;;;8.98;59.68;100927.59;4458111;32;19986;-89
2021/11/16 02:35:07;;;;;;;;;;;;;;;9.02;59.68;100930.19;4470359;32;19989;-87
2021/11/16 02:37:32;;;;;;;;;;;;;;;9.04;59.68;100932.75;4470878;32;19977;-89
2021/11/16 02:39:58;;;;;;;;;;;;;;;9.16;59.68;100932.66;4458150;32;19977;-89
2021/11/16 02:42:24;;;;;;;;;;;;;;;9.08;59.68;100926.66;4457886;32;19977;-88
2021/11/16 02:44:49;;;;;;;;;;;;;;;9.13;59.68;100933.56;4457292;32;33254;-89
2021/11/16 02:47:14;;;;;;;;;;;;;;;9.38;59.70;100926.44;4471145;32;20037;-89
2021/11/16 02:49:41;;;;;;;;;;;;;;;9.18;59.68;100923.12;4470979;32;19980;-90
2021/11/16 02:52:13;;;;;;;;;;;;;;;9.33;59.69;100917.81;4471114;32;19954;-90
2021/11/16 02:54:39;;;;;;;;;;;;;;;9.42;59.71;100924.66;4457790;32;20661;-90
2021/11/16 02:57:05;;;;;;;;;;;;;;;9.30;59.70;100915.25;4458267;32;19985;-89
2021/11/16 02:59:30;;;;;;;;;;;;;;;9.53;59.71;100918.50;4457861;32;20610;-90
2021/11/16 03:01:56;;;;;;;;;;;;;;;9.54;59.71;100920.22;4457673;32;20001;-88
2021/11/16 03:04:21;;;;;;;;;;;;;;;9.52;59.71;100919.38;4470899;32;19981;-88
2021/11/16 03:06:46;;;;;;;;;;;;;;;9.49;59.71;100911.63;4457619;32;20016;-89
2021/11/16 03:09:11;;;;;;;;;;;;;;;9.34;59.70;100909.16;4469669;32;23969;-88
2021/11/16 03:11:37;;;;;;;;;;;;;;;9.43;59.71;100908.19;4470195;32;20282;-88
2021/11/16 03:14:02;;;;;;;;;;;;;;;9.49;59.71;100909.03;4470062;32;34941;-87
2021/11/16 03:16:27;;;;;;;;;;;;;;;9.46;59.70;100911.66;4470912;32;25723;-88
2021/11/16 03:18:53;;;;;;;;;;;;;;;9.18;59.68;100923.12;4456484;32;34863;-88
2021/11/16 03:21:19;;;;;;;;;;;;;;;9.35;59.70;100915.19;4457243;32;19980;-88
2021/11/16 03:23:45;;;;;;;;;;;;;;;9.30;59.69;100914.38;4457293;32;19981;-89
2021/11/16 03:26:11;;;;;;;;;;;;;;;9.31;59.69;100919.56;4457338;32;20353;-88
2021/11/16 03:28:38;;;;;;;;;;;;;;;9.19;59.69;100920.50;4470336;32;19971;-89
2021/11/16 03:31:18;;;;;;;;;;;;;;;9.17;59.69;100924.84;4457395;32;19965;-88
2021/11/16 03:33:43;;;;;;;;;;;;;;;9.24;59.69;100923.09;4471061;32;20037;-88
2021/11/16 03:36:08;;;;;;;;;;;;;;;9.10;59.68;100922.31;4470031;32;19993;-88
2021/11/16 03:38:33;;;;;;;;;;;;;;;9.21;59.69;100920.50;4456377;32;30659;-88
2021/11/16 03:40:59;;;;;;;;;;;;;;;9.26;59.69;100907.50;4457964;32;20003;-87
2021/11/16 03:43:24;;;;;;;;;;;;;;;9.29;59.69;100920.47;4472248;32;20011;-88
2021/11/16 03:45:50;;;;;;;;;;;;;;;9.30;59.69;100901.41;4459259;32;20024;-88
2021/11/16 03:48:15;;;;;;;;;;;;;;;9.46;59.70;100900.38;4459053;32;19977;-88
2021/11/16 03:50:41;;;;;;;;;;;;;;;9.29;59.69;100915.25;4459242;32;20007;-87
2021/11/16 03:53:06;;;;;;;;;;;;;;;9.20;59.69;100906.66;4459329;32;20076;-88
2021/11/16 03:55:32;;;;;;;;;;;;;;;9.12;59.69;100905.84;4459350;32;20326;-88
2021/11/16 03:57:58;;;;;;;;;;;;;;;9.18;59.68;100890.22;4459264;32;20728;-89
2021/11/16 04:00:37;;;;;;;;;;;;;;;9.12;59.69;100907.59;4459217;32;19973;-88
2021/11/16 04:03:03;;;;;;;;;;;;;;;9.02;59.68;100900.75;4472287;32;20363;-89
2021/11/16 04:05:28;;;;;;;;;;;;;;;8.94;59.67;100900.78;4472209;32;19989;-89
2021/11/16 04:07:53;;;;;;;;;;;;;;;8.84;59.67;100907.78;4459289;32;19992;-89
2021/11/16 04:10:18;;;;;;;;;;;;;;;8.83;59.67;100900.00;4472189;32;19969;-89
2021/11/16 04:12:44;;;;;;;;;;;;;;;8.70;59.66;100893.16;4458512;32;21755;-86
2021/11/16 04:15:10;;;;;;;;;;;;;;;8.66;59.65;100896.66;4458432;32;20026;-86
2021/11/16 04:17:36;;;;;;;;;;;;;;;8.59;59.66;100891.50;4472621;32;20227;-86
2021/11/16 04:20:02;;;;;;;;;;;;;;;8.58;59.65;100892.38;4458699;32;19973;-87
2021/11/16 04:22:28;;;;;;;;;;;;;;;8.52;59.66;100897.59;4471583;32;19997;-86
2021/11/16 04:24:53;;;;;;;;;;;;;;;8.44;59.64;100893.31;4471605;32;20325;-87
2021/11/16 04:27:18;;;;;;;;;;;;;;;8.39;59.64;100885.56;4459078;32;20245;-87
2021/11/16 04:29:44;;;;;;;;;;;;;;;8.34;59.64;100892.50;4471557;32;20011;-87
2021/11/16 04:32:09;;;;;;;;;;;;;;;8.38;59.65;100894.19;4458763;32;19993;-88
2021/11/16 04:34:34;;;;;;;;;;;;;;;8.37;59.64;100891.63;4471901;32;19991;-89
2021/11/16 04:36:59;;;;;;;;;;;;;;;8.40;59.65;100889.00;4459016;32;20294;-87
2021/11/16 04:39:25;;;;;;;;;;;;;;;8.57;59.65;100884.59;4471983;32;19977;-87
2021/11/16 04:41:50;;;;;;;;;;;;;;;8.52;59.66;100883.78;4472364;32;20007;-88
2021/11/16 04:44:17;;;;;;;;;;;;;;;8.59;59.66;100888.03;4472342;32;20216;-88
2021/11/16 04:46:43;;;;;;;;;;;;;;;8.51;59.66;100889.78;4472065;32;19981;-88
2021/11/16 04:49:15;;;;;;;;;;;;;;;8.54;59.65;100893.25;4472074;32;19973;-89
2021/11/16 04:59:37;;;;;;;;;;;;;;;8.51;59.66;100892.41;4471653;32;19960;-89
2021/11/16 05:04:47;;;;;;;;;;;;;;;8.72;59.66;100894.00;4471523;32;20037;-86
2021/11/16 05:07:15;;;;;;;;;;;;;;;8.69;59.66;100891.44;4470545;32;19996;-86
2021/11/16 05:09:40;;;;;;;;;;;;;;;8.78;59.66;100892.25;4471185;32;19953;-87
2021/11/16 05:12:06;;;;;;;;;;;;;;;8.78;59.67;100892.25;4471020;32;19998;-87
2021/11/16 05:14:31;;;;;;;;;;;;;;;8.75;59.67;100899.16;4458160;32;20302;-87
2021/11/16 05:16:56;;;;;;;;;;;;;;;8.73;59.65;100899.19;4458643;32;20036;-88
2021/11/16 05:19:21;;;;;;;;;;;;;;;8.78;59.66;100907.84;4457837;32;24976;-87
2021/11/16 05:21:47;;;;;;;;;;;;;;;8.83;59.67;100903.47;4458268;32;20068;-87
2021/11/16 05:24:13;;;;;;;;;;;;;;;8.86;59.67;100906.03;4456848;32;30231;-86
2021/11/16 05:26:38;;;;;;;;;;;;;;;8.80;59.66;100907.81;4470498;32;19985;-87
2021/11/16 05:29:03;;;;;;;;;;;;;;;8.88;59.67;100906.03;4471022;32;30094;-87
2021/11/16 05:31:28;;;;;;;;;;;;;;;9.08;59.68;100901.56;4471041;32;30127;-89
2021/11/16 05:33:54;;;;;;;;;;;;;;;9.08;59.68;100906.75;4458326;32;19996;-90
2021/11/16 05:36:20;;;;;;;;;;;;;;;9.01;59.68;100904.22;4457826;32;19973;-90
2021/11/16 05:38:48;;;;;;;;;;;;;;;9.14;59.68;100906.69;4459021;32;19985;-90
2021/11/16 05:41:14;;;;;;;;;;;;;;;9.23;59.69;100900.59;4459484;32;19992;-89
2021/11/16 05:43:41;;;;;;;;;;;;;;;9.20;59.69;100901.44;4458358;32;20322;-90
2021/11/16 05:46:07;;;;;;;;;;;;;;;9.21;59.69;100897.13;4458712;32;19973;-90
2021/11/16 05:48:35;;;;;;;;;;;;;;;9.25;59.69;100896.25;4470682;32;28887;-89
2021/11/16 05:51:01;;;;;;;;;;;;;;;9.22;59.69;100904.03;4471451;32;19976;-90
2021/11/16 05:53:26;;;;;;;;;;;;;;;9.18;59.68;100905.78;4458567;32;20031;-90
2021/11/16 05:55:51;;;;;;;;;;;;;;;9.19;59.69;100917.91;4459590;32;19988;-88
2021/11/16 05:58:17;;;;;;;;;;;;;;;9.25;59.69;100906.62;4472569;32;20018;-90
2021/11/16 06:00:42;;;;;;;;;;;;;;;9.24;59.68;100904.91;4458358;32;19989;-90
2021/11/16 06:03:08;;;;;;;;;;;;;;;9.09;59.68;100903.28;4470589;32;20007;-90
2021/11/16 06:05:33;;;;;;;;;;;;;;;9.07;59.68;100914.56;4458489;32;19995;-90
2021/11/16 06:07:58;;;;;;;;;;;;;;;9.20;59.69;100918.78;4470896;32;30734;-91
2021/11/16 06:10:23;;;;;;;;;;;;;;;9.20;59.69;100918.78;4457721;32;26243;-90
2021/11/16 06:12:48;;;;;;;;;;;;;;;9.16;59.68;100922.28;4458946;32;19988;-90
2021/11/16 06:15:14;;;;;;;;;;;;;;;9.33;59.69;100922.16;4458557;32;20249;-89
2021/11/16 06:17:40;;;;;;;;;;;;;;;9.33;59.69;100919.56;4458217;32;19984;-91
2021/11/16 06:20:05;;;;;;;;;;;;;;;9.26;59.68;100928.28;4458428;32;20004;-90
2021/11/16 06:22:30;;;;;;;;;;;;;;;9.34;59.70;100929.94;4457927;32;20042;-91
2021/11/16 06:24:56;;;;;;;;;;;;;;;9.46;59.70;100931.53;4471116;32;20298;-91
2021/11/16 06:27:21;;;;;;;;;;;;;;;9.41;59.69;100933.34;4458264;32;20269;-91
2021/11/16 06:29:46;;;;;;;;;;;;;;;9.45;59.70;100930.69;4458580;32;20043;-90
2021/11/16 06:32:12;;;;;;;;;;;;;;;9.42;59.70;100930.72;4457262;32;23848;-90
2021/11/16 06:34:37;;;;;;;;;;;;;;;9.58;59.71;100936.66;4457808;32;20024;-92
2021/11/16 06:37:03;;;;;;;;;;;;;;;9.61;59.71;100936.62;4457486;32;20008;-90
2021/11/16 06:39:28;;;;;;;;;;;;;;;9.65;59.71;100937.44;4470471;32;20634;-90
2021/11/16 06:41:55;;;;;;;;;;;;;;;9.57;59.71;100937.53;4457242;32;25086;-90
2021/11/16 06:44:21;;;;;;;;;;;;;;;9.57;59.71;100940.12;4472313;32;19985;-89
2021/11/16 06:46:48;;;;;;;;;;;;;;;9.54;59.70;100941.03;4471105;32;19983;-89
2021/11/16 06:49:13;;;;;;;;;;;;;;;9.77;59.72;100939.94;4470913;32;20096;-89
2021/11/16 06:51:39;;;;;;;;;;;;;;;9.91;59.72;100939.78;4457021;32;22648;-90
2021/11/16 06:54:12;;;;;;;;;;;;;;;9.80;59.71;100939.91;4457852;32;19997;-88
2021/11/16 06:56:38;;;;;;;;;;;;;;;9.85;59.72;100936.38;4470911;32;19973;-89
2021/11/16 06:59:04;;;;;;;;;;;;;;;9.84;59.72;100933.81;4457657;32;20013;-90
2021/11/16 07:01:30;;;;;;;;;;;;;;;9.86;59.72;100926.84;4457678;32;20019;-89
2021/11/16 07:03:58;;;;;;;;;;;;;;;10.01;59.73;100931.03;4457937;32;19963;-89
2021/11/16 07:06:30;;;;;;;;;;;;;;;9.87;59.73;100933.78;4458392;32;19973;-91
2021/11/16 07:08:56;;;;;;;;;;;;;;;9.88;59.73;100937.22;4457671;32;19992;-90
2021/11/16 07:11:21;;;;;;;;;;;;;;;10.05;59.74;100925.78;4457959;32;20019;-90
2021/11/16 07:13:54;;;;;;;;;;;;;;;10.00;59.73;100921.50;4458869;32;19989;-91
2021/11/16 07:16:20;;;;;;;;;;;;;;;10.00;59.73;100929.31;4459119;32;19949;-88
2021/11/16 07:18:47;;;;;;;;;;;;;;;10.05;59.73;100927.53;4459016;32;20027;-90
2021/11/16 07:21:12;;;;;;;;;;;;;;;10.10;59.74;100928.31;4473004;32;19997;-90
2021/11/16 07:23:37;;;;;;;;;;;;;;;10.12;59.74;100929.16;4473157;32;27004;-89
2021/11/16 07:26:08;;;;;;;;;;;;;;;10.25;59.75;100924.72;4458993;32;26206;-90
2021/11/16 07:28:33;;;;;;;;;;;;;;;10.31;59.74;100919.44;4459141;32;19965;-90
2021/11/16 07:30:58;;;;;;;;;;;;;;;10.48;59.76;100927.91;4458678;32;31854;-90
2021/11/16 07:33:25;;;;;;;;;;;;;;;10.56;59.77;100920.84;4458149;32;23114;-88
2021/11/16 07:35:50;;;;;;;;;;;;;;;10.60;59.76;100925.13;4473632;32;20026;-89
2021/11/16 07:38:15;;;;;;;;;;;;;;;10.70;59.78;100928.50;4471944;32;20341;-89
2021/11/16 07:40:43;;;;;;;;;;;;;;;10.82;59.77;100930.03;4459184;32;20025;-89
2021/11/16 07:43:12;;;;;;;;;;;;;;;10.94;59.79;100928.13;4459247;32;19972;-91
2021/11/16 07:45:38;;;;;;;;;;;;;;;11.03;59.79;100933.19;4459727;32;20273;-90
2021/11/16 07:48:05;;;;;;;;;;;;;;;11.19;59.79;100933.84;4459102;32;20351;-88
2021/11/16 07:50:31;;;;;;;;;;;;;;;10.99;59.79;100935.88;4472220;32;19977;-90
2021/11/16 07:53:15;;;;;;;;;;;;;;;11.19;59.79;100944.25;4471738;32;20147;-89
2021/11/16 07:55:43;;;;;;;;;;;;;;;11.19;59.80;100946.88;4473342;32;19969;-89
2021/11/16 07:58:09;;;;;;;;;;;;;;;11.26;59.80;100951.09;4459425;32;20007;-90
2021/11/16 08:00:35;;;;;;;;;;;;;;;11.14;59.79;100947.84;4459354;32;20381;-90
2021/11/16 08:03:03;;;;;;;;;;;;;;;11.23;59.80;100945.94;4459662;32;19995;-90
2021/11/16 08:08:12;;;;;;;;;;;;;;;11.22;59.79;100954.63;4470826;32;19985;-90
2021/11/16 08:10:40;;;;;;;;;;;;;;;11.19;59.79;100951.22;4470961;32;19965;-90
2021/11/16 08:13:14;;;;;;;;;;;;;;;11.13;59.79;100953.94;4458029;32;19999;-89
2021/11/16 08:15:39;;;;;;;;;;;;;;;11.25;59.80;100953.72;4471073;32;20691;-90
2021/11/16 08:18:10;;;;;;;;;;;;;;;11.16;59.80;100953.88;4458028;32;20013;-89
2021/11/16 08:20:35;;;;;;;;;;;;;;;11.28;59.80;100954.53;4458913;32;20044;-89
2021/11/16 08:23:05;;;;;;;;;;;;;;;11.04;59.79;100960.97;4470351;32;19992;-89
2021/11/16 08:25:31;;;;;;;;;;;;;;;11.03;59.79;100954.03;4457858;32;20041;-89
2021/11/16 08:27:57;;;;;;;;;;;;;;;11.01;59.79;100957.56;4457949;32;19996;-89
2021/11/16 08:30:22;;;;;;;;;;;;;;;10.76;59.77;100957.03;4470791;32;20020;-89
2021/11/16 08:32:49;;;;;;;;;;;;;;;10.92;59.77;100949.88;4457407;32;19972;-89
2021/11/16 08:35:24;;;;;;;;;;;;;;;10.76;59.77;100960.50;4458193;32;19980;-90
2021/11/16 08:37:49;;;;;;;;;;;;;;;10.90;59.78;100957.72;4457841;32;20008;-89
2021/11/16 08:40:15;;;;;;;;;;;;;;;10.71;59.77;100949.28;4470629;32;20285;-89
2021/11/16 08:42:42;;;;;;;;;;;;;;;10.85;59.77;100953.44;4457464;32;19999;-90
2021/11/16 08:45:15;;;;;;;;;;;;;;;10.95;59.78;100955.06;4470886;32;20028;-89
2021/11/16 08:47:43;;;;;;;;;;;;;;;11.01;59.79;100953.22;4457824;32;20312;-90
2021/11/16 08:50:47;;;;;;;;;;;;;;;11.13;59.79;100946.97;4471869;32;20486;-89
2021/11/16 08:53:13;;;;;;;;;;;;;;;11.17;59.80;100948.63;4425396;32;19986;-89
2021/11/16 08:55:38;;;;;;;;;;;;;;;11.21;59.79;100952.06;4425480;32;20326;-89
2021/11/16 08:58:06;;;;;;;;;;;;;;;11.51;59.81;100953.31;4444974;32;20026;-90
2021/11/16 09:00:34;;;;;;;;;;;;;;;11.44;59.81;100952.56;4470467;32;19988;-89
2021/11/16 09:03:01;;;;;;;;;;;;;;;11.49;59.81;100945.50;4457390;32;19968;-90
2021/11/16 09:05:28;;;;;;;;;;;;;;;11.42;59.81;100948.25;4470645;32;19985;-89
2021/11/16 09:07:54;;;;;;;;;;;;;;;11.57;59.81;100955.81;4457502;32;20371;-88
2021/11/16 09:10:19;;;;;;;;;;;;;;;11.60;59.81;100947.97;4470273;32;19965;-89
2021/11/16 09:12:45;;;;;;;;;;;;;;;11.67;59.82;100944.34;4457432;32;20350;-89
2021/11/16 09:15:12;;;;;;;;;;;;;;;11.89;59.83;100947.47;4470285;32;19969;-89
2021/11/16 09:17:38;;;;;;;;;;;;;;;12.09;59.85;100945.34;4470126;32;19993;-89
2021/11/16 09:20:16;;;;;;;;;;;;;;;12.11;59.84;100940.09;4457550;32;20093;-89
2021/11/16 09:22:41;;;;;;;;;;;;;;;12.09;59.84;100934.91;4470179;32;19980;-89
2021/11/16 09:25:18;;;;;;;;;;;;;;;12.14;59.85;100933.06;4470414;32;20384;-89
2021/11/16 09:27:45;;;;;;;;;;;;;;;12.18;59.85;100924.28;4457619;32;20036;-89
2021/11/16 09:30:10;;;;;;;;;;;;;;;12.07;59.85;100930.62;4470370;32;19996;-89
2021/11/16 09:32:36;;;;;;;;;;;;;;;12.17;59.85;100922.56;4457008;32;20285;-89
2021/11/16 09:35:02;;;;;;;;;;;;;;;12.29;59.86;100921.44;4456538;32;24770;-89
2021/11/16 09:37:29;;;;;;;;;;;;;;;12.59;59.88;100919.97;4457300;32;20054;-89
2021/11/16 09:39:56;;;;;;;;;;;;;;;12.50;59.87;100914.91;4456886;32;19968;-89
2021/11/16 09:42:35;;;;;;;;;;;;;;;12.24;59.86;100924.16;4457677;32;20018;-89
2021/11/16 09:45:08;;;;;;;;;;;;;;;12.38;59.86;100915.19;4470282;32;20026;-89
2021/11/16 09:47:34;;;;;;;;;;;;;;;12.32;59.86;100905.75;4470111;32;20459;-89
2021/11/16 09:50:01;;;;;;;;;;;;;;;12.51;59.87;100907.03;4470017;32;20710;-88
2021/11/16 09:52:30;;;;;;;;;;;;;;;12.52;59.87;100900.94;4469993;32;20007;-88
2021/11/16 09:54:59;;;;;;;;;;;;;;;12.53;59.87;100902.66;4456909;32;19992;-89
2021/11/16 09:57:30;;;;;;;;;;;;;;;12.65;59.87;100895.44;4471305;32;20040;-89
2021/11/16 10:00:04;;;;;;;;;;;;;;;12.56;59.87;100892.16;4471292;32;20042;-88
2021/11/16 10:02:29;;;;;;;;;;;;;;;12.60;59.87;100890.34;4469753;32;19988;-88
2021/11/16 10:05:01;;;;;;;;;;;;;;;12.59;59.88;100883.41;4456894;32;19976;-90
2021/11/16 10:07:26;;;;;;;;;;;;;;;12.43;59.86;100882.00;4457345;32;20049;-88
2021/11/16 10:09:51;;;;;;;;;;;;;;;12.50;59.87;100888.78;4457390;32;20042;-90
2021/11/16 10:12:18;;;;;;;;;;;;;;;12.69;59.88;100876.19;4457342;32;20004;-90
2021/11/16 10:14:43;;;;;;;;;;;;;;;12.56;59.87;100878.25;4456930;32;19991;-89
2021/11/16 10:17:08;;;;;;;;;;;;;;;12.55;59.87;100882.59;4469975;32;19989;-89
2021/11/16 10:19:34;;;;;;;;;;;;;;;12.46;59.87;100880.16;4456233;32;24566;-88
2021/11/16 10:21:59;;;;;;;;;;;;;;;12.65;59.87;100869.31;4469913;32;19992;-89
2021/11/16 10:24:26;;;;;;;;;;;;;;;12.71;59.87;100872.66;4456472;32;20005;-89
2021/11/16 10:26:56;;;;;;;;;;;;;;;12.86;59.89;100866.22;4469921;32;20001;-89
2021/11/16 10:29:21;;;;;;;;;;;;;;;12.98;59.89;100863.31;4469542;32;20019;-89
2021/11/16 10:31:46;;;;;;;;;;;;;;;13.10;59.89;100862.16;4469725;32;20032;-89
2021/11/16 10:34:11;;;;;;;;;;;;;;;13.21;59.90;100855.78;4455738;32;29535;-89
2021/11/16 10:36:36;;;;;;;;;;;;;;;13.10;59.90;100855.19;4455684;32;27911;-89
2021/11/16 10:39:02;;;;;;;;;;;;;;;13.05;59.90;100850.97;4456355;32;20061;-89
2021/11/16 10:41:31;;;;;;;;;;;;;;;13.21;59.90;100842.72;4457094;32;19977;-89
2021/11/16 10:43:58;;;;;;;;;;;;;;;13.28;59.91;100846.06;4457389;32;19973;-89
2021/11/16 10:46:24;;;;;;;;;;;;;;;13.49;59.93;100842.88;4456965;32;20580;-88
2021/11/16 10:48:50;;;;;;;;;;;;;;;13.60;59.93;100841.72;4469032;32;19997;-89
2021/11/16 10:51:17;;;;;;;;;;;;;;;13.72;59.92;100839.66;4456247;32;19964;-88
2021/11/16 10:53:50;;;;;;;;;;;;;;;13.56;59.92;100833.09;4469053;32;20015;-89
2021/11/16 10:56:15;;;;;;;;;;;;;;;13.85;59.94;100829.69;4468870;32;20011;-89
2021/11/16 10:58:41;;;;;;;;;;;;;;;13.96;59.95;100831.97;4456130;32;19989;-89
2021/11/16 11:01:08;;;;;;;;;;;;;;;14.22;59.97;100824.25;4469414;32;20246;-88
2021/11/16 11:03:42;;;;;;;;;;;;;;;14.25;59.96;100824.16;4470427;32;19988;-88
2021/11/16 11:06:11;;;;;;;;;;;;;;;14.10;59.96;100819.34;4469509;32;19988;-89
2021/11/16 11:08:42;;;;;;;;;;;;;;;13.97;59.95;100807.53;4469387;32;20041;-89
2021/11/16 11:11:13;;;;;;;;;;;;;;;13.96;59.95;100814.53;4468946;32;19957;-89
2021/11/16 11:13:38;;;;;;;;;;;;;;;13.92;59.95;100806.78;4468802;32;19982;-89
2021/11/16 11:16:04;;;;;;;;;;;;;;;13.88;59.95;100805.19;4468539;32;27558;-89
2021/11/16 11:18:29;;;;;;;;;;;;;;;13.93;59.94;100798.03;4456019;32;19989;-89
2021/11/16 11:20:56;;;;;;;;;;;;;;;13.98;59.95;100801.41;4468943;32;19996;-89
2021/11/16 11:23:22;;;;;;;;;;;;;;;14.12;59.96;100793.97;4455931;32;19991;-89
2021/11/16 11:25:49;;;;;;;;;;;;;;;14.09;59.95;100791.47;4468569;32;20011;-89
2021/11/16 11:28:33;;;;;;;;;;;;;;;13.96;59.95;100792.72;4468918;32;20600;-89
2021/11/16 11:30:58;;;;;;;;;;;;;;;13.76;59.94;100786.31;4455710;32;20685;-88
2021/11/16 11:33:27;;;;;;;;;;;;;;;13.92;59.94;100791.09;4455728;32;20051;-88
2021/11/16 11:35:52;;;;;;;;;;;;;;;13.94;59.94;100782.28;4455496;32;20011;-89
2021/11/16 11:38:17;;;;;;;;;;;;;;;13.80;59.94;100779.22;4468713;32;20000;-89
2021/11/16 11:40:42;;;;;;;;;;;;;;;13.81;59.94;100776.56;4468792;32;19973;-88
2021/11/16 11:43:09;;;;;;;;;;;;;;;13.92;59.94;100767.53;4468370;32;19996;-89
2021/11/16 11:45:37;;;;;;;;;;;;;;;14.00;59.95;100771.66;4455469;32;20046;-89
2021/11/16 11:48:08;;;;;;;;;;;;;;;13.62;59.93;100774.53;4468847;32;20110;-89
2021/11/16 11:50:36;;;;;;;;;;;;;;;13.36;59.92;100773.47;4469863;32;20464;-89
2021/11/16 11:53:12;;;;;;;;;;;;;;;13.29;59.91;100768.47;4468564;32;20003;-89
2021/11/16 11:55:39;;;;;;;;;;;;;;;13.48;59.92;100767.03;4455440;32;20016;-89
2021/11/16 11:58:05;;;;;;;;;;;;;;;13.63;59.93;100760.53;4455425;32;20012;-88
2021/11/16 12:00:30;;;;;;;;;;;;;;;13.24;59.91;100763.34;4454949;32;19992;-89
2021/11/16 12:02:56;;;;;;;;;;;;;;;13.51;59.93;100756.53;4457283;32;20014;-89
2021/11/16 12:05:21;;;;;;;;;;;;;;;13.36;59.92;100752.56;4457542;32;20009;-89
2021/11/16 12:07:47;;;;;;;;;;;;;;;13.45;59.92;100749.69;4457477;32;20012;-88
2021/11/16 12:10:12;;;;;;;;;;;;;;;13.48;59.92;100749.59;4470485;32;20011;-88
2021/11/16 12:12:37;;;;;;;;;;;;;;;13.59;59.93;100748.44;4470735;32;20012;-89
2021/11/16 12:15:09;;;;;;;;;;;;;;;13.60;59.93;100755.41;4457492;32;20222;-89
2021/11/16 12:17:36;;;;;;;;;;;;;;;13.24;59.91;100752.03;4470295;32;19993;-89
2021/11/16 12:20:02;;;;;;;;;;;;;;;13.30;59.91;100750.13;4457651;32;20048;-89
2021/11/16 12:22:31;;;;;;;;;;;;;;;13.41;59.92;100748.06;4470603;32;19997;-89
2021/11/16 12:24:59;;;;;;;;;;;;;;;13.22;59.91;100752.06;4457502;32;19994;-88
2021/11/16 12:27:28;;;;;;;;;;;;;;;13.29;59.91;100750.16;4470832;32;19995;-89
2021/11/16 12:29:53;;;;;;;;;;;;;;;12.84;59.89;100745.22;4457730;32;19976;-88
2021/11/16 12:32:26;;;;;;;;;;;;;;;13.03;59.89;100754.28;4457365;32;20007;-89
2021/11/16 12:34:52;;;;;;;;;;;;;;;13.18;59.90;100748.69;4457730;32;20007;-88
2021/11/16 12:37:43;;;;;;;;;;;;;;;12.89;59.88;100743.34;4457174;32;20027;-88
2021/11/16 12:40:20;;;;;;;;;;;;;;;13.25;59.91;100744.16;4470312;32;19981;-88
2021/11/16 12:43:04;;;;;;;;;;;;;;;13.20;59.91;100733.81;4470756;32;19972;-89
2021/11/16 12:45:37;;;;;;;;;;;;;;;13.37;59.92;100732.50;4470657;32;20049;-88
2021/11/16 12:48:05;;;;;;;;;;;;;;;13.36;59.92;100730.78;4457157;32;20679;-89
2021/11/16 12:50:30;;;;;;;;;;;;;;;13.37;59.92;100720.28;4457544;32;19967;-88
2021/11/16 12:52:55;;;;;;;;;;;;;;;13.50;59.93;100718.19;4470378;32;19996;-89
2021/11/16 12:55:24;;;;;;;;;;;;;;;13.36;59.92;100729.03;4456865;32;21687;-88